createdAt,value
2018-09-13T00:01:50.927Z,15.18
2018-09-13T00:06:50.461Z,15.28
2018-09-13T00:11:50.680Z,15.18
2018-09-13T00:16:50.935Z,15.08
2018-09-13T00:21:50.395Z,14.98
2018-09-13T00:26:50.974Z,14.98
2018-09-13T00:31:51.257Z,14.88
2018-09-13T00:36:50.777Z,14.78
2018-09-13T00:41:50.937Z,14.88
2018-09-13T00:46:51.219Z,14.78
2018-09-13T00:51:50.681Z,14.68
2018-09-13T00:56:50.308Z,14.68
2018-09-13T01:01:50.593Z,14.68
2018-09-13T01:06:51.111Z,14.68
2018-09-13T01:11:50.310Z,14.78
2018-09-13T01:16:50.624Z,14.68
2018-09-13T01:21:51.057Z,14.68
2018-09-13T01:26:50.711Z,14.68
2018-09-13T01:31:50.946Z,14.58
2018-09-13T01:36:50.423Z,14.58
2018-09-13T01:41:50.643Z,14.58
2018-09-13T01:46:50.903Z,14.58
2018-09-13T01:51:50.385Z,14.58
2018-09-13T01:56:50.987Z,14.68
2018-09-13T02:01:50.293Z,14.58
2018-09-13T02:06:50.807Z,14.38
2018-09-13T02:11:51.052Z,14.38
2018-09-13T02:16:50.333Z,14.28
2018-09-13T02:21:50.793Z,14.28
2018-09-13T02:26:50.415Z,14.28
2018-09-13T02:31:50.711Z,14.08
2018-09-13T02:36:51.184Z,14.28
2018-09-13T02:41:50.410Z,14.28
2018-09-13T02:46:50.674Z,14.28
2018-09-13T02:51:51.163Z,14.18
2018-09-13T02:56:50.832Z,14.08
2018-09-13T03:01:51.045Z,14.18
2018-09-13T03:06:50.579Z,14.08
2018-09-13T03:11:50.801Z,14.08
2018-09-13T03:16:51.069Z,14.08
2018-09-13T03:21:50.580Z,14.08
2018-09-13T03:26:51.157Z,14.08
2018-09-13T03:31:50.522Z,13.98
2018-09-13T03:36:50.891Z,14.08
2018-09-13T03:41:51.311Z,13.98
2018-09-13T03:46:50.438Z,14.18
2018-09-13T03:51:50.928Z,14.18
2018-09-13T03:56:50.475Z,13.98
2018-09-13T04:01:50.797Z,13.98
2018-09-13T04:06:51.318Z,13.88
2018-09-13T04:11:50.508Z,13.88
2018-09-13T04:16:50.793Z,13.98
2018-09-13T04:21:51.279Z,13.98
2018-09-13T04:26:50.887Z,13.88
2018-09-13T04:31:51.249Z,13.88
2018-09-13T04:36:50.663Z,13.98
2018-09-13T04:41:50.887Z,13.98
2018-09-13T04:46:51.202Z,13.98
2018-09-13T04:51:50.653Z,13.98
2018-09-13T04:56:50.276Z,13.88
2018-09-13T05:01:50.578Z,13.88
2018-09-13T05:06:51.113Z,13.88
2018-09-13T05:11:50.862Z,13.88
2018-09-13T05:16:51.149Z,13.88
2018-09-13T05:21:50.673Z,13.68
2018-09-13T05:26:51.253Z,13.68
2018-09-13T05:31:50.507Z,13.68
2018-09-13T05:36:50.980Z,13.78
2018-09-13T05:41:51.198Z,13.68
2018-09-13T05:46:50.483Z,13.78
2018-09-13T05:51:50.919Z,13.68
2018-09-13T05:56:51.257Z,13.68
2018-09-13T06:01:50.795Z,13.68
2018-09-13T06:06:51.291Z,13.68
2018-09-13T06:11:50.490Z,13.68
2018-09-13T06:16:50.798Z,13.58
2018-09-13T06:21:51.285Z,13.58
2018-09-13T06:26:50.869Z,13.68
2018-09-13T06:31:51.146Z,13.78
2018-09-13T06:36:50.634Z,13.88
2018-09-13T06:41:50.811Z,13.98
2018-09-13T06:46:51.104Z,13.98
2018-09-13T06:51:50.584Z,13.78
2018-09-13T06:56:51.130Z,13.98
2018-09-13T07:01:50.458Z,13.88
2018-09-13T07:06:51.007Z,13.88
2018-09-13T07:11:51.163Z,13.98
2018-09-13T07:16:50.524Z,14.18
2018-09-13T07:21:50.995Z,14.08
2018-09-13T07:26:50.531Z,14.08
2018-09-13T07:31:50.855Z,14.18
2018-09-13T07:36:51.796Z,14.08
2018-09-13T07:41:50.645Z,13.98
2018-09-13T07:46:50.990Z,14.08
2018-09-13T07:51:51.419Z,14.18
2018-09-13T07:56:51.005Z,14.38
2018-09-13T08:01:51.315Z,14.18
2018-09-13T08:06:50.822Z,13.98
2018-09-13T08:11:51.287Z,14.08
2018-09-13T08:16:51.287Z,14.08
2018-09-13T08:21:51.627Z,14.18
2018-09-13T08:26:50.337Z,14.08
2018-09-13T08:31:50.599Z,14.18
2018-09-13T08:36:51.284Z,14.18
2018-09-13T08:41:50.324Z,14.18
2018-09-13T08:46:50.636Z,14.28
2018-09-13T08:51:51.255Z,14.18
2018-09-13T08:56:50.726Z,14.08
2018-09-13T09:01:51.005Z,14.18
2018-09-13T09:06:50.569Z,14.18
2018-09-13T09:11:50.796Z,14.38
2018-09-13T09:16:51.014Z,14.28
2018-09-13T09:21:50.542Z,14.28
2018-09-13T09:26:51.030Z,14.38
2018-09-13T09:31:50.371Z,14.48
2018-09-13T09:36:50.797Z,14.48
2018-09-13T09:41:51.094Z,14.48
2018-09-13T09:46:51.343Z,14.48
2018-09-13T09:51:50.885Z,14.38
2018-09-13T09:56:50.646Z,14.58
2018-09-13T10:01:50.578Z,14.48
2018-09-13T10:06:51.193Z,14.68
2018-09-13T10:11:50.366Z,14.78
2018-09-13T10:16:50.635Z,14.68
2018-09-13T10:21:51.113Z,14.78
2018-09-13T10:26:50.737Z,14.78
2018-09-13T10:31:50.965Z,14.88
2018-09-13T10:36:50.557Z,15.28
2018-09-13T10:41:50.674Z,15.18
2018-09-13T10:46:50.943Z,15.28
2018-09-13T10:51:50.490Z,15.08
2018-09-13T10:56:51.003Z,14.98
2018-09-13T11:01:50.330Z,15.08
2018-09-13T11:06:50.872Z,15.28
2018-09-13T11:11:51.064Z,15.18
2018-09-13T11:16:50.308Z,15.48
2018-09-13T11:21:51.188Z,15.48
2018-09-13T11:26:50.400Z,15.58
2018-09-13T11:31:50.680Z,15.68
2018-09-13T11:36:51.189Z,15.88
2018-09-13T11:41:50.376Z,15.98
2018-09-13T11:46:50.651Z,16.08
2018-09-13T11:51:51.166Z,16.08
2018-09-13T11:56:50.728Z,16.08
2018-09-13T12:01:51.085Z,15.98
2018-09-13T12:06:50.550Z,16.08
2018-09-13T12:11:50.700Z,15.88
2018-09-13T12:16:51.028Z,16.08
2018-09-13T12:21:50.682Z,16.18
2018-09-13T12:26:51.012Z,16.18
2018-09-13T12:31:50.395Z,16.48
2018-09-13T12:36:50.843Z,16.88
2018-09-13T12:41:50.995Z,16.98
2018-09-13T12:46:50.277Z,17.08
2018-09-13T12:51:50.825Z,17.18
2018-09-13T12:56:51.043Z,17.18
2018-09-13T13:01:50.634Z,17.08
2018-09-13T13:06:51.583Z,17.28
2018-09-13T13:11:50.382Z,17.38
2018-09-13T13:16:50.915Z,17.38
2018-09-13T13:21:51.125Z,17.38
2018-09-13T13:26:50.711Z,17.58
2018-09-13T13:31:51.017Z,17.88
2018-09-13T13:36:50.557Z,17.98
2018-09-13T13:41:50.677Z,18.18
2018-09-13T13:46:50.966Z,18.08
2018-09-13T13:51:50.511Z,18.18
2018-09-13T13:56:51.899Z,18.48
2018-09-13T14:01:50.426Z,18.78
2018-09-13T14:06:50.957Z,18.78
2018-09-13T14:11:51.102Z,18.48
2018-09-13T14:16:50.343Z,18.28
2018-09-13T14:21:50.847Z,18.28
2018-09-13T14:26:50.428Z,18.28
2018-09-13T14:31:50.725Z,18.18
2018-09-13T14:36:51.210Z,18.28
2018-09-13T14:41:50.517Z,18.48
2018-09-13T14:46:50.823Z,18.38
2018-09-13T14:51:51.173Z,18.34
2018-09-13T14:56:50.794Z,18.14
2018-09-13T15:01:51.142Z,18.28
2018-09-13T15:06:50.722Z,18.77
2018-09-13T15:11:50.790Z,18.43
2018-09-13T15:16:51.193Z,18.73
2018-09-13T15:21:50.620Z,18.64
2018-09-13T15:26:51.167Z,18.58
2018-09-13T15:31:50.460Z,18.43
2018-09-13T15:36:50.951Z,18.73
2018-09-13T15:41:51.203Z,18.61
2018-09-13T15:46:50.461Z,18.69
2018-09-13T15:51:50.893Z,18.43
2018-09-13T15:56:50.449Z,18.55
2018-09-13T16:01:50.736Z,18.84
2018-09-13T16:06:51.237Z,18.51
2018-09-13T16:11:50.452Z,18.46
2018-09-13T16:16:50.762Z,18.20
2018-09-13T16:21:51.179Z,18.34
2018-09-13T16:26:50.788Z,18.11
2018-09-13T16:31:51.091Z,17.96
2018-09-13T16:36:50.697Z,17.83
2018-09-13T16:41:50.754Z,17.80
2018-09-13T16:46:51.077Z,17.74
2018-09-13T16:51:50.593Z,17.58
2018-09-13T16:56:51.161Z,17.62
2018-09-13T17:01:50.462Z,17.68
2018-09-13T17:06:51.080Z,17.48
2018-09-13T17:11:51.214Z,17.28
2018-09-13T17:16:50.516Z,17.38
2018-09-13T17:21:50.958Z,17.68
2018-09-13T17:26:50.640Z,17.48
2018-09-13T17:31:50.853Z,17.68
2018-09-13T17:36:51.320Z,17.58
2018-09-13T17:41:50.518Z,17.18
2018-09-13T17:46:50.822Z,17.08
2018-09-13T17:51:51.259Z,17.08
2018-09-13T17:56:50.856Z,16.48
2018-09-13T18:01:51.140Z,16.18
2018-09-13T18:06:50.728Z,16.48
2018-09-13T18:11:50.865Z,16.28
2018-09-13T18:16:51.122Z,16.18
2018-09-13T18:21:50.665Z,15.78
2018-09-13T18:26:51.210Z,15.18
2018-09-13T18:31:50.524Z,15.28
2018-09-13T18:36:51.029Z,15.28
2018-09-13T18:41:51.179Z,14.78
2018-09-13T18:46:50.533Z,14.78
2018-09-13T18:51:50.955Z,14.78
2018-09-13T18:56:50.580Z,14.78
2018-09-13T19:01:50.899Z,14.78
2018-09-13T19:06:50.439Z,15.28
2018-09-13T19:11:50.594Z,15.38
2018-09-13T19:16:50.914Z,14.78
2018-09-13T19:21:55.457Z,14.28
2018-09-13T19:26:51.072Z,14.38
2018-09-13T19:31:50.277Z,14.38
2018-09-13T19:36:50.765Z,14.48
2018-09-13T19:41:50.962Z,14.38
2018-09-13T19:46:50.272Z,14.08
2018-09-13T19:51:50.729Z,13.68
2018-09-13T19:56:50.388Z,13.38
2018-09-13T20:01:50.612Z,13.38
2018-09-13T20:06:51.088Z,13.88
2018-09-13T20:11:50.483Z,13.48
2018-09-13T20:16:50.605Z,13.68
2018-09-13T20:21:51.052Z,12.98
2018-09-13T20:26:50.698Z,12.98
2018-09-13T20:31:50.987Z,12.78
2018-09-13T20:36:50.423Z,12.38
2018-09-13T20:41:50.629Z,12.38
2018-09-13T20:46:50.938Z,12.58
2018-09-13T20:51:50.384Z,12.68
2018-09-13T20:56:51.006Z,12.48
2018-09-13T21:01:50.277Z,12.38
2018-09-13T21:06:50.761Z,12.28
2018-09-13T21:11:50.975Z,12.78
2018-09-13T21:16:50.318Z,12.28
2018-09-13T21:21:50.739Z,12.38
2018-09-13T21:26:50.319Z,12.08
2018-09-13T21:31:50.629Z,11.88
2018-09-13T21:36:51.060Z,11.78
2018-09-13T21:41:50.320Z,11.68
2018-09-13T21:46:50.612Z,11.48
2018-09-13T21:51:51.064Z,11.58
2018-09-13T21:56:50.713Z,11.88
2018-09-13T22:01:50.918Z,11.48
2018-09-13T22:06:50.420Z,11.28
2018-09-13T22:11:50.626Z,11.58
2018-09-13T22:16:50.894Z,11.98
2018-09-13T22:21:50.405Z,12.28
2018-09-13T22:26:51.016Z,11.48
2018-09-13T22:31:50.265Z,11.28
2018-09-13T22:36:50.743Z,11.48
2018-09-13T22:41:51.062Z,11.48
2018-09-13T22:46:50.337Z,11.18
2018-09-13T22:51:50.666Z,11.18
2018-09-13T22:56:50.405Z,11.08
2018-09-13T23:01:50.655Z,11.28
2018-09-13T23:06:51.125Z,11.48
2018-09-13T23:11:50.388Z,11.28
2018-09-13T23:16:50.705Z,11.08
2018-09-13T23:21:51.093Z,11.18
2018-09-13T23:26:50.994Z,10.98
2018-09-13T23:31:50.962Z,10.78
2018-09-13T23:36:50.436Z,10.68
2018-09-13T23:41:50.633Z,10.49
2018-09-13T23:46:50.963Z,10.29
2018-09-13T23:51:50.436Z,10.68
2018-09-13T23:56:50.992Z,10.78
